Time;durP1;ratioP1;P1;durP2;ratioP2;P2;SDS_P1;SDS_P2;PMS_P1;PMS_P2;Temp;Humidity;BMP_temperature;BMP_pressure;BME280_temperature;BME280_humidity;BME280_pressure;Samples;Min_cycle;Max_cycle;Signal;HPM_P1;HPM_P2
2023/03/28 00:01:30;;;;;;;;;;;16.30;58.70;;;;;;10090110;28;93630;-68
2023/03/28 00:06:31;;;;;;;;;;;16.20;58.70;;;;;;10090893;28;94434;-68
2023/03/28 00:11:33;;;;;;;;;;;16.30;58.60;;;;;;10090403;28;94650;-68
2023/03/28 00:16:36;;;;;;;;;;;16.20;58.70;;;;;;10090915;28;93454;-68
2023/03/28 00:21:40;;;;;;;;;;;16.20;58.60;;;;;;10089497;28;93774;-68
2023/03/28 00:26:42;;;;;;;;;;;16.20;58.60;;;;;;10090217;28;93427;-68
2023/03/28 00:31:44;;;;;;;;;;;16.20;58.60;;;;;;10087801;28;96636;-68
2023/03/28 00:36:46;;;;;;;;;;;16.20;58.50;;;;;;10089889;28;93898;-68
2023/03/28 00:41:48;;;;;;;;;;;16.20;58.50;;;;;;10072291;28;93788;-68
2023/03/28 00:46:50;;;;;;;;;;;16.20;58.30;;;;;;10090463;28;93848;-68
2023/03/28 00:51:55;;;;;;;;;;;16.20;58.40;;;;;;10088450;28;93942;-68
2023/03/28 00:56:58;;;;;;;;;;;16.20;58.40;;;;;;10089061;28;93509;-68
2023/03/28 01:02:00;;;;;;;;;;;16.20;58.20;;;;;;10089439;28;94672;-68
2023/03/28 01:07:03;;;;;;;;;;;16.20;58.30;;;;;;10089303;28;93669;-68
2023/03/28 01:12:04;;;;;;;;;;;16.10;58.40;;;;;;10088500;28;93473;-68
2023/03/28 01:17:07;;;;;;;;;;;16.10;58.30;;;;;;10088754;28;93994;-68
2023/03/28 01:22:15;;;;;;;;;;;16.10;58.30;;;;;;10086209;28;95766;-68
2023/03/28 01:27:26;;;;;;;;;;;16.10;58.30;;;;;;10088212;28;96059;-68
2023/03/28 01:32:28;;;;;;;;;;;16.10;58.30;;;;;;10087919;28;93942;-68
2023/03/28 01:37:39;;;;;;;;;;;16.10;58.30;;;;;;10086707;28;94658;-68
2023/03/28 01:42:41;;;;;;;;;;;16.10;58.30;;;;;;10087271;28;94552;-68
2023/03/28 01:48:03;;;;;;;;;;;16.00;58.20;;;;;;10086248;28;93527;-67
2023/03/28 01:53:25;;;;;;;;;;;16.10;58.20;;;;;;10087565;28;93016;-68
2023/03/28 01:58:37;;;;;;;;;;;16.00;58.20;;;;;;10086943;28;92730;-69
2023/03/28 02:03:41;;;;;;;;;;;16.00;58.10;;;;;;10070630;28;94262;-69
2023/03/28 02:08:43;;;;;;;;;;;16.00;58.10;;;;;;10086577;28;94464;-68
2023/03/28 02:13:52;;;;;;;;;;;16.00;58.20;;;;;;10083820;28;95986;-68
2023/03/28 02:18:56;;;;;;;;;;;16.00;58.10;;;;;;10087570;28;94985;-68
2023/03/28 02:23:57;;;;;;;;;;;15.90;58.00;;;;;;10086812;28;94366;-68
2023/03/28 02:28:59;;;;;;;;;;;15.90;58.00;;;;;;10069497;28;93631;-68
2023/03/28 02:34:01;;;;;;;;;;;15.90;57.90;;;;;;10086780;28;93897;-68
2023/03/28 02:39:08;;;;;;;;;;;15.90;57.90;;;;;;10069239;28;93516;-69
2023/03/28 02:44:21;;;;;;;;;;;15.90;57.80;;;;;;10086520;28;93535;-67
2023/03/28 02:49:36;;;;;;;;;;;15.90;57.80;;;;;;10087143;28;92780;-69
2023/03/28 02:54:50;;;;;;;;;;;15.90;57.80;;;;;;10078177;28;96295;-68
2023/03/28 02:59:55;;;;;;;;;;;15.90;57.70;;;;;;10092375;28;94346;-68
2023/03/28 03:05:00;;;;;;;;;;;15.90;57.80;;;;;;10072896;28;95942;-68
2023/03/28 03:10:06;;;;;;;;;;;15.80;57.70;;;;;;10093103;28;94522;-68
2023/03/28 03:15:09;;;;;;;;;;;15.80;57.80;;;;;;10091423;28;93458;-68
2023/03/28 03:20:11;;;;;;;;;;;15.80;57.80;;;;;;10092103;28;94490;-68
2023/03/28 03:25:13;;;;;;;;;;;15.80;57.90;;;;;;10091129;28;93452;-68
2023/03/28 03:30:15;;;;;;;;;;;15.90;58.00;;;;;;10092948;28;94522;-68
2023/03/28 03:35:18;;;;;;;;;;;15.90;58.00;;;;;;10091558;28;94114;-68
2023/03/28 03:40:20;;;;;;;;;;;15.90;57.80;;;;;;10060940;28;92706;-69
2023/03/28 03:45:22;;;;;;;;;;;15.90;57.80;;;;;;10090839;28;94807;-68
2023/03/28 05:02:43;;;;;;;;;;;16.20;57.20;;;;;;10101668;28;95239;-66
2023/03/28 05:07:45;;;;;;;;;;;16.40;56.70;;;;;;10073189;28;93968;-65
2023/03/28 05:12:47;;;;;;;;;;;16.50;56.40;;;;;;10088370;28;93419;-64
2023/03/28 05:17:48;;;;;;;;;;;16.60;57.70;;;;;;10090329;28;93531;-67
2023/03/28 05:22:50;;;;;;;;;;;16.60;58.40;;;;;;10091133;28;94583;-67
2023/03/28 05:27:52;;;;;;;;;;;16.60;58.30;;;;;;10089867;28;94460;-67
2023/03/28 05:32:53;;;;;;;;;;;16.50;58.40;;;;;;10113424;28;93542;-67
2023/03/28 05:37:55;;;;;;;;;;;16.50;58.40;;;;;;10129152;28;93114;-65
2023/03/28 05:42:57;;;;;;;;;;;16.50;58.20;;;;;;10127496;28;93203;-66
2023/03/28 05:47:59;;;;;;;;;;;16.40;58.50;;;;;;10130914;28;94318;-64
2023/03/28 05:53:01;;;;;;;;;;;16.40;58.10;;;;;;10165089;28;97032;-65
2023/03/28 05:58:03;;;;;;;;;;;16.40;58.20;;;;;;10166731;28;93771;-63
2023/03/28 06:03:06;;;;;;;;;;;16.50;59.40;;;;;;10166282;28;93499;-63
2023/03/28 06:08:08;;;;;;;;;;;16.60;59.90;;;;;;10166647;28;93588;-63
2023/03/28 06:13:10;;;;;;;;;;;16.70;57.40;;;;;;10166348;28;93504;-63
2023/03/28 06:18:12;;;;;;;;;;;16.70;54.70;;;;;;10149232;28;93706;-64
2023/03/28 06:23:14;;;;;;;;;;;16.70;54.50;;;;;;10166388;28;92558;-64
2023/03/28 06:28:16;;;;;;;;;;;16.70;54.40;;;;;;10172654;28;92172;-63
2023/03/28 06:33:18;;;;;;;;;;;16.70;54.50;;;;;;10172324;28;93276;-63
2023/03/28 06:38:19;;;;;;;;;;;16.70;55.00;;;;;;10173234;28;93141;-63
2023/03/28 06:43:21;;;;;;;;;;;16.60;59.50;;;;;;10170343;28;96773;-63
2023/03/28 06:48:29;;;;;;;;;;;16.70;59.20;;;;;;10171284;28;93589;-63
2023/03/28 06:53:31;;;;;;;;;;;16.60;59.20;;;;;;10173149;28;92808;-63
2023/03/28 06:58:33;;;;;;;;;;;16.50;59.30;;;;;;10170917;28;93246;-63
2023/03/28 07:03:35;;;;;;;;;;;16.50;59.70;;;;;;10156270;28;94533;-63
2023/03/28 07:08:37;;;;;;;;;;;16.50;59.60;;;;;;10171847;28;93762;-62
2023/03/28 07:13:38;;;;;;;;;;;16.40;59.40;;;;;;10171706;28;94481;-63
2023/03/28 07:18:40;;;;;;;;;;;16.40;59.40;;;;;;10172826;28;93702;-63
2023/03/28 07:23:43;;;;;;;;;;;16.40;59.40;;;;;;10172453;28;93294;-63
2023/03/28 07:28:45;;;;;;;;;;;16.30;59.90;;;;;;10126330;28;93479;-63
2023/03/28 07:33:49;;;;;;;;;;;16.30;59.50;;;;;;10129634;28;96402;-64
2023/03/28 07:38:51;;;;;;;;;;;16.30;59.50;;;;;;10130439;28;94496;-63
2023/03/28 07:43:53;;;;;;;;;;;16.30;59.50;;;;;;10130808;28;93516;-62
2023/03/28 07:48:55;;;;;;;;;;;16.30;59.60;;;;;;10129427;28;92788;-62
2023/03/28 07:53:56;;;;;;;;;;;16.20;59.30;;;;;;10131095;28;93252;-62
2023/03/28 07:59:00;;;;;;;;;;;16.20;59.40;;;;;;10131956;28;93337;-63
2023/03/28 08:04:02;;;;;;;;;;;16.20;59.40;;;;;;10129130;28;94299;-62
2023/03/28 08:09:08;;;;;;;;;;;16.10;59.40;;;;;;10128624;28;93918;-63
2023/03/28 08:14:12;;;;;;;;;;;16.10;59.40;;;;;;10126337;28;93592;-63
2023/03/28 08:19:14;;;;;;;;;;;16.10;59.30;;;;;;10129846;28;93988;-63
2023/03/28 08:24:15;;;;;;;;;;;16.10;59.40;;;;;;10128238;28;96013;-63
2023/03/28 08:29:33;;;;;;;;;;;16.10;59.30;;;;;;10130506;28;94207;-63
2023/03/28 08:34:35;;;;;;;;;;;16.10;59.20;;;;;;10130222;28;93241;-63
2023/03/28 08:39:39;;;;;;;;;;;16.10;59.10;;;;;;10130537;28;94444;-64
2023/03/28 08:45:00;;;;;;;;;;;16.10;59.30;;;;;;10130381;28;92509;-63
2023/03/28 08:50:08;;;;;;;;;;;16.00;59.00;;;;;;10111716;28;93191;-63
2023/03/28 08:55:27;;;;;;;;;;;16.00;59.00;;;;;;10114083;28;94186;-63
2023/03/28 09:00:30;;;;;;;;;;;16.00;59.10;;;;;;10114246;28;92663;-64
2023/03/28 09:06:11;;;;;;;;;;;16.00;59.10;;;;;;10129463;28;94815;-63
2023/03/28 09:11:18;;;;;;;;;;;16.00;59.00;;;;;;10006659;29;93772;-63
2023/03/28 09:16:34;;;;;;;;;;;15.90;58.90;;;;;;10100814;28;96382;-63
2023/03/28 09:21:36;;;;;;;;;;;15.90;58.90;;;;;;10129832;28;94082;-62
2023/03/28 09:26:43;;;;;;;;;;;15.90;59.10;;;;;;10128233;28;93912;-61
2023/03/28 09:31:48;;;;;;;;;;;15.90;59.10;;;;;;10129728;28;93493;-63
2023/03/28 09:36:52;;;;;;;;;;;15.90;59.10;;;;;;10128547;28;93439;-63
2023/03/28 09:41:58;;;;;;;;;;;15.90;59.00;;;;;;10129413;28;95124;-63
2023/03/28 09:47:01;;;;;;;;;;;16.00;59.00;;;;;;10128973;28;93346;-63
2023/03/28 09:52:13;;;;;;;;;;;16.00;59.00;;;;;;10129244;28;95316;-63
2023/03/28 09:57:15;;;;;;;;;;;16.00;58.80;;;;;;10128526;28;93774;-63
2023/03/28 10:02:23;;;;;;;;;;;16.00;58.80;;;;;;10133692;28;93541;-63
2023/03/28 10:07:30;;;;;;;;;;;16.00;58.60;;;;;;10115477;28;97267;-62
2023/03/28 10:12:33;;;;;;;;;;;16.00;58.50;;;;;;10136560;28;92883;-63
2023/03/28 10:17:36;;;;;;;;;;;16.10;58.40;;;;;;10134781;28;93475;-63
2023/03/28 10:22:38;;;;;;;;;;;16.10;58.60;;;;;;10134964;28;93983;-63
2023/03/28 10:27:40;;;;;;;;;;;16.10;58.50;;;;;;10134013;28;93759;-62
2023/03/28 10:32:42;;;;;;;;;;;16.10;58.40;;;;;;10135002;28;93119;-63
2023/03/28 10:37:47;;;;;;;;;;;16.10;58.40;;;;;;10133945;28;93181;-63
2023/03/28 10:42:49;;;;;;;;;;;16.10;58.30;;;;;;10134535;28;93744;-62
2023/03/28 10:47:55;;;;;;;;;;;16.10;58.40;;;;;;10132463;28;94399;-63
2023/03/28 10:52:57;;;;;;;;;;;16.10;58.50;;;;;;10134392;28;94637;-64
2023/03/28 10:58:01;;;;;;;;;;;16.10;58.40;;;;;;10130474;28;94999;-64
2023/03/28 11:03:14;;;;;;;;;;;16.10;58.10;;;;;;10115339;28;114072;-62
2023/03/28 11:08:48;;;;;;;;;;;16.10;58.20;;;;;;10132623;28;93443;-63
2023/03/28 11:13:55;;;;;;;;;;;16.10;58.20;;;;;;10099669;28;93207;-63
2023/03/28 11:19:09;;;;;;;;;;;16.10;58.20;;;;;;10116386;28;94522;-63
2023/03/28 11:24:21;;;;;;;;;;;16.10;58.30;;;;;;10132504;28;94481;-62
2023/03/28 11:29:44;;;;;;;;;;;16.10;58.20;;;;;;10115337;28;94466;-63
2023/03/28 11:35:02;;;;;;;;;;;16.10;58.40;;;;;;10131319;28;92762;-63
2023/03/28 11:40:23;;;;;;;;;;;16.10;58.20;;;;;;10131777;28;94386;-62
2023/03/28 11:45:26;;;;;;;;;;;16.00;58.20;;;;;;10132101;28;93436;-63
2023/03/28 11:50:56;;;;;;;;;;;16.00;58.40;;;;;;10128841;28;95611;-63
2023/03/28 11:56:07;;;;;;;;;;;16.00;58.30;;;;;;10133037;28;94480;-63
2023/03/28 12:01:15;;;;;;;;;;;16.00;58.40;;;;;;10130640;28;93596;-63
2023/03/28 12:06:30;;;;;;;;;;;16.00;58.30;;;;;;10130428;28;93630;-63
2023/03/28 12:11:35;;;;;;;;;;;16.00;58.20;;;;;;10130968;28;93609;-62
2023/03/28 12:16:41;;;;;;;;;;;16.00;58.20;;;;;;10131244;28;94424;-63
2023/03/28 12:21:48;;;;;;;;;;;15.90;57.70;;;;;;10114826;28;93474;-62
2023/03/28 12:26:50;;;;;;;;;;;15.90;58.20;;;;;;10131372;28;92705;-63
2023/03/28 12:31:57;;;;;;;;;;;15.90;57.90;;;;;;10131178;28;93385;-62
2023/03/28 12:37:11;;;;;;;;;;;15.90;58.00;;;;;;10131535;28;94179;-63
2023/03/28 12:42:15;;;;;;;;;;;15.90;57.70;;;;;;10128637;28;96661;-63
2023/03/28 12:47:22;;;;;;;;;;;15.90;58.00;;;;;;10129631;28;93915;-62
2023/03/28 12:52:30;;;;;;;;;;;15.90;57.80;;;;;;10130288;28;92971;-62
2023/03/28 12:57:44;;;;;;;;;;;15.90;57.90;;;;;;10129596;28;94274;-63
2023/03/28 13:02:50;;;;;;;;;;;15.90;58.10;;;;;;10129729;28;92621;-63
2023/03/28 13:07:55;;;;;;;;;;;15.90;57.80;;;;;;10129120;28;94859;-62
2023/03/28 13:13:09;;;;;;;;;;;15.90;57.90;;;;;;10129853;28;94453;-63
2023/03/28 13:18:20;;;;;;;;;;;15.90;58.40;;;;;;10130239;28;92743;-62
2023/03/28 13:23:26;;;;;;;;;;;15.90;58.30;;;;;;10129190;28;93656;-63
2023/03/28 13:28:51;;;;;;;;;;;15.90;58.50;;;;;;10111843;28;94277;-63
2023/03/28 13:33:57;;;;;;;;;;;15.80;58.50;;;;;;10125837;28;95832;-62
2023/03/28 13:39:06;;;;;;;;;;;15.80;58.40;;;;;;10128097;28;94493;-62
2023/03/28 13:44:12;;;;;;;;;;;15.80;57.90;;;;;;10129181;28;94271;-63
2023/03/28 13:49:17;;;;;;;;;;;15.80;58.20;;;;;;10111115;28;93762;-63
2023/03/28 13:54:20;;;;;;;;;;;15.80;57.90;;;;;;10127499;28;93270;-63
2023/03/28 13:59:23;;;;;;;;;;;15.80;58.10;;;;;;10127854;28;94892;-63
2023/03/28 14:04:26;;;;;;;;;;;15.70;58.20;;;;;;10127693;28;93551;-63
2023/03/28 14:09:31;;;;;;;;;;;15.70;58.50;;;;;;10111488;28;94064;-63
2023/03/28 14:14:36;;;;;;;;;;;15.70;58.60;;;;;;10127177;28;93534;-62
2023/03/28 14:19:42;;;;;;;;;;;15.70;58.40;;;;;;10127286;28;93432;-63
2023/03/28 14:24:45;;;;;;;;;;;15.70;58.20;;;;;;10124756;28;96152;-63
2023/03/28 14:29:51;;;;;;;;;;;15.70;58.30;;;;;;10127663;28;93287;-63
2023/03/28 14:34:54;;;;;;;;;;;15.70;58.20;;;;;;10127322;28;94464;-62
2023/03/28 14:39:56;;;;;;;;;;;15.70;58.30;;;;;;10126385;28;93464;-62
2023/03/28 14:44:58;;;;;;;;;;;15.70;58.30;;;;;;10127112;28;93316;-63
2023/03/28 14:50:00;;;;;;;;;;;15.70;58.30;;;;;;10132199;28;93577;-62
2023/03/28 14:55:03;;;;;;;;;;;15.70;58.40;;;;;;10133065;28;94501;-62
2023/03/28 15:00:11;;;;;;;;;;;15.60;58.60;;;;;;10133475;28;92628;-62
2023/03/28 15:05:15;;;;;;;;;;;15.60;58.60;;;;;;10134067;28;93758;-63
2023/03/28 15:10:16;;;;;;;;;;;15.60;58.50;;;;;;10133607;28;93487;-63
2023/03/28 15:15:20;;;;;;;;;;;15.70;58.50;;;;;;10130979;28;96984;-63
2023/03/28 15:20:33;;;;;;;;;;;15.60;58.50;;;;;;10133285;28;93505;-63
2023/03/28 15:25:35;;;;;;;;;;;15.60;58.50;;;;;;10132065;28;94132;-63
2023/03/28 15:30:42;;;;;;;;;;;15.60;58.30;;;;;;10132350;28;94487;-64
2023/03/28 15:35:44;;;;;;;;;;;15.60;58.40;;;;;;10132699;28;93540;-62
2023/03/28 15:40:50;;;;;;;;;;;15.60;58.30;;;;;;10114674;28;93466;-62
2023/03/28 15:45:54;;;;;;;;;;;15.60;58.40;;;;;;10130711;28;93507;-63
2023/03/28 15:50:55;;;;;;;;;;;15.60;58.50;;;;;;10132241;28;93900;-63
2023/03/28 15:56:03;;;;;;;;;;;15.50;58.30;;;;;;10132263;28;94986;-64
2023/03/28 16:01:20;;;;;;;;;;;15.60;59.40;;;;;;10130027;28;94542;-64
2023/03/28 16:06:23;;;;;;;;;;;15.50;58.30;;;;;;10128510;28;95902;-64
2023/03/28 16:11:34;;;;;;;;;;;15.50;58.20;;;;;;10130984;28;94768;-63
2023/03/28 16:16:37;;;;;;;;;;;15.50;58.50;;;;;;10128432;28;93231;-63
2023/03/28 16:21:39;;;;;;;;;;;15.60;58.60;;;;;;10129802;28;94534;-63
2023/03/28 16:26:41;;;;;;;;;;;15.80;58.40;;;;;;10130157;28;92763;-63
2023/03/28 16:31:43;;;;;;;;;;;16.00;58.20;;;;;;10130182;28;94246;-63
2023/03/28 16:36:45;;;;;;;;;;;16.30;57.90;;;;;;10128588;28;94575;-63
2023/03/28 16:41:47;;;;;;;;;;;16.50;57.50;;;;;;10129780;28;93026;-62
2023/03/28 16:46:49;;;;;;;;;;;16.60;57.10;;;;;;10129708;28;93526;-63
2023/03/28 16:51:53;;;;;;;;;;;16.80;57.00;;;;;;10128224;28;93628;-63
2023/03/28 16:56:55;;;;;;;;;;;16.90;56.70;;;;;;10109627;28;96249;-63
2023/03/28 17:01:56;;;;;;;;;;;16.90;56.60;;;;;;10169081;28;93715;-66
2023/03/28 17:06:58;;;;;;;;;;;17.00;56.50;;;;;;10169548;28;94489;-67
2023/03/28 17:12:00;;;;;;;;;;;17.10;58.70;;;;;;10170943;28;93481;-69
2023/03/28 17:17:02;;;;;;;;;;;17.20;61.10;;;;;;10170109;28;94063;-68
2023/03/28 17:22:03;;;;;;;;;;;17.40;61.80;;;;;;10152360;28;94724;-69
2023/03/28 17:27:05;;;;;;;;;;;17.40;60.80;;;;;;10115872;28;95107;-67
2023/03/28 17:32:07;;;;;;;;;;;17.50;58.60;;;;;;10130291;28;93046;-68
2023/03/28 17:37:09;;;;;;;;;;;17.40;58.10;;;;;;10129394;28;93709;-68
2023/03/28 17:42:11;;;;;;;;;;;17.40;58.10;;;;;;10128738;28;93535;-68
2023/03/28 17:47:13;;;;;;;;;;;17.40;58.20;;;;;;10123370;28;95931;-67
2023/03/28 17:52:15;;;;;;;;;;;17.50;58.10;;;;;;10128175;28;93471;-68
2023/03/28 17:57:17;;;;;;;;;;;17.60;57.90;;;;;;10128382;28;94461;-67
2023/03/28 18:02:19;;;;;;;;;;;17.70;57.60;;;;;;10111306;28;92521;-69
2023/03/28 18:07:21;;;;;;;;;;;17.70;57.50;;;;;;10128329;28;93527;-68
2023/03/28 18:12:22;;;;;;;;;;;17.60;57.60;;;;;;10128235;28;93463;-68
2023/03/28 18:17:24;;;;;;;;;;;17.60;57.80;;;;;;10111973;28;94049;-68
2023/03/28 18:22:27;;;;;;;;;;;17.70;57.90;;;;;;10132037;28;92733;-68
2023/03/28 18:27:28;;;;;;;;;;;17.80;57.70;;;;;;10135772;28;93810;-68
2023/03/28 18:32:30;;;;;;;;;;;17.80;57.60;;;;;;10134956;28;93934;-68
2023/03/28 18:37:33;;;;;;;;;;;17.80;57.80;;;;;;10114692;28;97230;-68
2023/03/28 18:42:35;;;;;;;;;;;17.80;57.70;;;;;;10117854;28;93340;-68
2023/03/28 18:47:37;;;;;;;;;;;17.70;57.90;;;;;;10133225;28;94594;-69
2023/03/28 18:52:39;;;;;;;;;;;17.80;58.00;;;;;;10134519;28;94791;-68
2023/03/28 18:57:41;;;;;;;;;;;17.90;58.10;;;;;;10116520;28;93499;-68
2023/03/28 19:02:47;;;;;;;;;;;18.00;58.00;;;;;;10133412;28;93243;-66
2023/03/28 19:07:49;;;;;;;;;;;18.00;57.80;;;;;;10133450;28;93228;-66
2023/03/28 19:12:51;;;;;;;;;;;18.00;57.70;;;;;;10133262;28;93859;-66
2023/03/28 19:17:55;;;;;;;;;;;17.90;57.70;;;;;;10116499;28;93416;-66
2023/03/28 19:22:57;;;;;;;;;;;17.80;57.80;;;;;;10132544;28;93452;-67
2023/03/28 19:27:59;;;;;;;;;;;17.70;58.10;;;;;;10131109;28;96947;-66
2023/03/28 19:33:01;;;;;;;;;;;17.80;58.20;;;;;;10131599;28;93549;-66
2023/03/28 19:38:04;;;;;;;;;;;17.90;58.10;;;;;;10132259;28;93895;-67
2023/03/28 19:43:06;;;;;;;;;;;18.00;57.80;;;;;;10132598;28;93635;-67
2023/03/28 19:48:07;;;;;;;;;;;18.00;57.80;;;;;;10131043;28;93995;-67
2023/03/28 19:53:09;;;;;;;;;;;18.00;57.80;;;;;;10132218;28;95062;-66
2023/03/28 19:58:11;;;;;;;;;;;18.00;57.90;;;;;;10132351;28;92864;-67
2023/03/28 20:03:13;;;;;;;;;;;17.90;58.10;;;;;;10130656;28;93698;-65
2023/03/28 20:08:17;;;;;;;;;;;17.80;58.30;;;;;;10130980;28;93649;-65
2023/03/28 20:13:19;;;;;;;;;;;17.70;58.40;;;;;;10131851;28;94385;-65
2023/03/28 20:18:21;;;;;;;;;;;17.50;58.20;;;;;;10128738;28;95417;-66
2023/03/28 20:23:23;;;;;;;;;;;17.50;58.20;;;;;;10129728;28;92704;-65
2023/03/28 20:28:29;;;;;;;;;;;17.40;58.30;;;;;;10113635;28;94329;-65
2023/03/28 20:33:32;;;;;;;;;;;17.30;58.40;;;;;;10130171;28;93629;-65
2023/03/28 20:38:34;;;;;;;;;;;17.20;58.30;;;;;;10129356;28;93480;-65
2023/03/28 20:43:39;;;;;;;;;;;17.10;58.30;;;;;;10130070;28;94479;-65
2023/03/28 20:48:45;;;;;;;;;;;17.10;58.50;;;;;;10129899;28;93577;-66
2023/03/28 20:53:51;;;;;;;;;;;17.00;58.40;;;;;;10113281;28;93763;-65
2023/03/28 20:58:54;;;;;;;;;;;16.90;58.50;;;;;;10130083;28;94259;-65
2023/03/28 21:03:58;;;;;;;;;;;16.90;58.40;;;;;;10129524;28;94504;-65
2023/03/28 21:09:08;;;;;;;;;;;16.80;58.60;;;;;;10126537;28;96821;-65
2023/03/28 21:14:12;;;;;;;;;;;16.80;58.90;;;;;;10129354;28;93450;-65
2023/03/28 21:19:14;;;;;;;;;;;16.70;58.90;;;;;;10112302;28;93638;-64
2023/03/28 21:24:16;;;;;;;;;;;16.70;58.90;;;;;;10128222;28;93466;-65
2023/03/28 21:29:18;;;;;;;;;;;16.60;59.00;;;;;;10128241;28;94465;-65
2023/03/28 21:34:29;;;;;;;;;;;16.60;59.20;;;;;;10129972;28;93659;-65
2023/03/28 21:39:31;;;;;;;;;;;16.60;59.30;;;;;;10128932;28;92579;-65
2023/03/28 21:44:32;;;;;;;;;;;16.50;59.20;;;;;;10129983;28;93648;-65
2023/03/28 21:49:36;;;;;;;;;;;16.50;59.20;;;;;;10129238;28;94122;-65
2023/03/28 21:54:38;;;;;;;;;;;16.50;59.10;;;;;;10110237;28;93674;-64
2023/03/28 21:59:39;;;;;;;;;;;16.40;59.10;;;;;;10126668;28;99543;-65
2023/03/28 22:04:42;;;;;;;;;;;16.50;59.10;;;;;;10128822;28;93420;-65
2023/03/28 22:09:44;;;;;;;;;;;16.40;59.10;;;;;;10128303;28;94572;-65
2023/03/28 22:14:45;;;;;;;;;;;16.30;59.00;;;;;;10127693;28;94438;-64
2023/03/28 22:19:48;;;;;;;;;;;16.30;59.00;;;;;;10127906;28;93780;-65
2023/03/28 22:24:50;;;;;;;;;;;16.30;59.00;;;;;;10127190;28;93594;-66
2023/03/28 22:29:52;;;;;;;;;;;16.30;59.20;;;;;;10127350;28;93534;-65
2023/03/28 22:34:54;;;;;;;;;;;16.20;59.10;;;;;;10127375;28;92658;-65
2023/03/28 22:39:56;;;;;;;;;;;16.20;59.10;;;;;;10127142;28;93672;-65
2023/03/28 22:44:57;;;;;;;;;;;16.20;59.20;;;;;;10126939;28;93454;-65
2023/03/28 22:49:59;;;;;;;;;;;16.20;59.10;;;;;;10123674;28;95936;-64
2023/03/28 22:55:01;;;;;;;;;;;16.10;59.10;;;;;;10126712;28;93728;-65
2023/03/28 23:00:03;;;;;;;;;;;16.10;59.30;;;;;;10126715;28;94920;-65
2023/03/28 23:05:06;;;;;;;;;;;16.10;59.20;;;;;;10124908;28;93604;-66
2023/03/28 23:10:11;;;;;;;;;;;16.10;59.20;;;;;;10131053;28;93821;-65
2023/03/28 23:15:13;;;;;;;;;;;16.10;59.30;;;;;;10130886;28;94284;-65
2023/03/28 23:20:15;;;;;;;;;;;16.00;59.30;;;;;;10132653;28;93973;-65
2023/03/28 23:25:18;;;;;;;;;;;16.00;59.30;;;;;;10134040;28;93712;-64
2023/03/28 23:30:20;;;;;;;;;;;16.00;59.30;;;;;;10132373;28;94761;-64
2023/03/28 23:35:21;;;;;;;;;;;16.00;59.40;;;;;;10132480;28;93419;-65
2023/03/28 23:40:23;;;;;;;;;;;16.00;59.30;;;;;;10129649;28;96907;-65
2023/03/28 23:45:25;;;;;;;;;;;15.90;59.30;;;;;;10132144;28;94582;-66
2023/03/28 23:50:27;;;;;;;;;;;16.00;59.30;;;;;;10131467;28;93463;-65
2023/03/28 23:55:30;;;;;;;;;;;15.90;59.20;;;;;;10115145;28;94551;-65
